Tiempo atmosférico en la estación meteorológica de Son Servera, Illes Balears (28 m.)



Fecha
DESCASC
Temp. máxima en grados centígrados (hora)
DESCASC
Temp. mínima en grados centígrados (hora)
DESCASC
Temp. media en grados centígrados
DESCASC
Racha de viento máxima en m/sg (hora)
DESCASC
Velocidad máxima media en intervalos de 10 minutos(hora)
DESCASC
Precipitaciones diarias en mm
DESCASC
Precipitaciones de 00:00 a 06:00 en mm
DESCASC
Precipitaciones de 06:00 a 12:00 en mm
DESCASC
Precipitaciones de 12:00 a 18:00 en mm
DESCASC
Precipitaciones de 18:00 a 24:00 en mm
DESCASC
14-12-2019 24 (13:00) 10.3 (23:00) 17.2 11.11 (01:20) 6.67 (00:50) 0 0 0 0 0
13-12-2019 20 (14:40) 12.9 (00:30) 16.4 17.5 (13:00) 10.56 (08:30) 0 0 0 0 0
12-12-2019 18.4 (12:30) 8.1 (04:30) 13.3 11.39 (23:50) 6.67 (23:40) 0 0 0 0 0
11-12-2019 20 (14:10) 4.5 (00:00) 12.3 15.28 (18:50) 7.5 (19:00) 0.4 0 0 0 0.4
10-12-2019 15.4 (16:10) 5.5 (00:00) 10.4 17.22 (12:10) 8.61 (11:30) 0 0 0 0 0
09-12-2019 20.6 (12:40) 8.8 (00:00) 14.7 15 (18:10) 7.5 (18:10) 0 0 0 0 0
08-12-2019 20 (14:30) 6.7 (00:00) 13.3 6.39 (17:30) 3.89 (17:20) 0.4 0.2 0.2 0 0
07-12-2019 19.9 (14:20) 8 (00:00) 13.9 3.61 (03:10) 2.5 (02:40) 0.2 0 0.2 0 0
06-12-2019 19.4 (13:00) 9 (00:00) 14.2 5 (11:40) 3.06 (15:40) 0.4 0.2 0 0.2 0
05-12-2019 20.1 (12:40) 8.3 (00:00) 14.2 5.83 (14:10) 3.61 (12:00) 0.4 0.2 0.2 0 0
04-12-2019 16.7 (00:00) 9.2 (00:00) 13 18.33 (00:40) 10 (01:40) 28.4 15.6 2.4 10.4 0
03-12-2019 16.8 (23:40) 12.1 (00:00) 14.4 16.11 (23:40) 9.17 (22:40) 0.4 0.2 0 0 0.2
02-12-2019 14.9 (05:30) 12.8 (00:00) 13.8 11.11 (20:40) 6.39 (14:00) 8.4 0.6 7.6 0.2 0
01-12-2019 22 (13:40) 13.2 (00:00) 17.6 7.78 (12:10) 3.89 (01:30) 0 0 0 0 0
30-11-2019 21.3 (12:30) 10.5 (00:00) 15.9 6.67 (14:50) 4.17 (14:10) 0 0 0 0 0
29-11-2019 23.3 (12:10) 10.7 (00:00) 17 5.28 (10:40) 3.33 (10:40) 0 0 0 0 0
28-11-2019 22.1 (14:10) 10.6 (00:00) 16.4 10.83 (17:10) 6.67 (17:00) 0 0 0 0 0
27-11-2019 23.5 (12:40) 11 (00:00) 17.3 14.17 (05:00) 8.89 (04:30) 0 0 0 0 0
26-11-2019 21.2 (13:30) 9 (00:00) 15.1 8.61 (21:20) 5 (16:20) 0 0 0 0 0
25-11-2019 -- (--) -- (--) -- 6.11 (12:00) 3.06 (12:00) -- -- -- 0 0
24-11-2019 18.2 (12:50) 6.6 (00:00) 12.4 10.56 (11:20) 6.39 (11:50) -- -- -- -- --
23-11-2019 17.5 (12:50) 10.4 (00:00) 13.9 15 (11:10) 8.61 (00:10) -- -- -- -- --
22-11-2019 17.4 (11:40) 9.2 (00:00) 13.3 15.28 (22:20) 8.06 (23:30) -- -- -- -- --
21-11-2019 18.6 (12:10) 7.5 (00:00) 13.1 9.72 (13:50) 5.28 (13:50) -- -- -- -- --
20-11-2019 14.6 (12:40) 4.4 (00:00) 9.5 9.72 (19:40) 5.56 (19:40) -- -- -- -- --
19-11-2019 16.4 (11:40) 5.5 (00:00) 10.9 7.78 (00:30) 4.72 (13:50) -- -- -- -- --
18-11-2019 14.3 (13:10) 9.8 (00:00) 12.1 12.78 (16:50) 6.67 (13:20) -- -- -- -- --
17-11-2019 16.2 (12:50) 8.9 (00:00) 12.6 11.11 (11:10) 6.11 (11:10) -- -- -- -- --
16-11-2019 12.5 (13:40) 4.9 (00:00) 8.7 10 (14:20) 5.56 (14:10) -- -- -- -- --
15-11-2019 16.9 (12:50) 5.9 (00:00) 11.4 7.5 (09:30) 4.17 (07:50) -- -- -- -- --

Gráficas

Temp. máximas Temp. mínimas Temp. medias Precipitaciones Rachas de viento máximas Velocidades máximas media en intervalos de 10 minutos

Datos horarios

Fecha y hora oficial Temperatura (ºC) Velocidad del viento (km/h) Dirección del viento Racha (km/h) Dirección de racha Precipitación (mm) Presión (hPa) Tendencia (hPa) Humedad (%)
2019-12-14 23:00:00 10.3 2 Norte 12 Oeste 0 -- -- 92
2019-12-14 22:00:00 12.4 4 Sudoeste 12 Oeste 0 -- -- 91
2019-12-14 21:00:00 13.2 3 Norte 23 Noroeste 0 -- -- 90
2019-12-14 20:00:00 13.5 10 Noroeste 19 Noroeste 0 -- -- 88
2019-12-14 19:00:00 13.2 5 Noroeste 12 Noroeste 0 -- -- 86
2019-12-14 18:00:00 14.9 7 Noroeste 14 Oeste 0 -- -- 81
2019-12-14 17:00:00 16.4 6 Oeste 14 Oeste 0 -- -- 74
2019-12-14 16:00:00 18.6 4 Oeste 12 Este 0 -- -- 67
2019-12-14 15:00:00 19.3 6 Sur 19 Sudeste 0 -- -- 69
2019-12-14 14:00:00 19.9 14 Sudeste 23 Sur 0 -- -- 57
2019-12-14 13:00:00 24 8 Norte 19 Noroeste 0 -- -- 40
2019-12-14 12:00:00 22.5 9 Oeste 26 Noroeste 0 -- -- 47
2019-12-14 11:00:00 19.6 16 Oeste 30 Oeste 0 -- -- 55
2019-12-14 10:00:00 18.5 9 Oeste 28 Oeste 0 -- -- 60
2019-12-14 09:00:00 15.5 4 Oeste 11 Norte 0 -- -- 68
2019-12-14 08:00:00 11.9 5 Norte 16 Sudoeste 0 -- -- 81
2019-12-14 07:00:00 14.1 4 Noroeste 13 Oeste 0 -- -- 74
2019-12-14 06:00:00 14 8 Noroeste 21 Sudoeste 0 -- -- 75
2019-12-14 05:00:00 14.6 9 Oeste 36 Norte 0 -- -- 72
2019-12-14 04:00:00 15.1 13 Noroeste 22 Noroeste 0 -- -- 70
2019-12-14 03:00:00 15.1 6 Sudoeste 19 Norte 0 -- -- 71
2019-12-14 02:00:00 17.1 9 Oeste 40 Oeste 0 -- -- 64
2019-12-14 01:00:00 17.6 19 Oeste 38 Oeste 0 -- -- 62
2019-12-14 00:00:00 18.2 17 Oeste 46 Norte 0 -- -- 59
2019-12-13 23:00:00 17.3 16 Sudoeste 39 Oeste 0 -- -- 64
2019-12-13 22:00:00 18.6 14 Oeste 32 Oeste 0 -- -- 56
2019-12-13 21:00:00 18.7 10 Oeste 34 Oeste 0 -- -- 56
2019-12-13 20:00:00 18.4 15 Noroeste 36 Noroeste 0 -- -- 55
2019-12-13 19:00:00 18.4 14 Oeste 37 Oeste 0 -- -- 56
2019-12-13 18:00:00 18.5 17 Oeste 35 Oeste 0 -- -- 56
2019-12-13 17:00:00 18.5 18 Noroeste 42 Oeste 0 -- -- 57
2019-12-13 16:00:00 19.3 29 Noroeste 53 Noroeste 0 -- -- 55
2019-12-13 15:00:00 19.8 25 Noroeste 59 Oeste 0 -- -- 56
2019-12-13 14:00:00 19.6 28 Oeste 54 Oeste 0 -- -- 57
2019-12-13 13:00:00 18.9 35 Oeste 63 Oeste 0 -- -- 63
2019-12-13 12:00:00 18.9 33 Noroeste 58 Noroeste 0 -- -- 67
2019-12-13 11:00:00 18.2 32 Noroeste 60 Noroeste 0 -- -- 69
2019-12-13 10:00:00 16.9 33 Oeste 60 Oeste 0 -- -- 73
2019-12-13 09:00:00 16.2 37 Noroeste 61 Oeste 0 -- -- 74
2019-12-13 08:00:00 15.5 30 Oeste 58 Oeste 0 -- -- 75
2019-12-13 07:00:00 15.3 30 Oeste 54 Oeste 0 -- -- 76
2019-12-13 06:00:00 15.1 26 Oeste 48 Oeste 0 -- -- 74
2019-12-13 05:00:00 14.9 21 Oeste 43 Oeste 0 -- -- 73
2019-12-13 04:00:00 15 24 Oeste 46 Noroeste 0 -- -- 72
2019-12-13 03:00:00 15 27 Oeste 46 Oeste 0 -- -- 71
2019-12-13 02:00:00 14.5 21 Oeste 42 Oeste 0 -- -- 70
2019-12-13 01:00:00 13.6 23 Oeste 42 Oeste 0 -- -- 73
2019-12-13 00:00:00 13.4 23 Oeste 41 Oeste 0 -- -- 70
2019-12-12 23:00:00 13.5 19 Oeste 32 Oeste 0 -- -- 67
2019-12-12 22:00:00 12.7 10 Oeste 23 Oeste 0 -- -- 75
2019-12-12 21:00:00 12.5 13 Oeste 26 Oeste 0 -- -- 76
2019-12-12 20:00:00 12.3 15 Oeste 24 Oeste 0 -- -- 77
2019-12-12 19:00:00 12.2 15 Oeste 30 Oeste 0 -- -- 78
2019-12-12 18:00:00 12.5 14 Oeste 26 Oeste 0 -- -- 75
2019-12-12 17:00:00 13.5 16 Oeste 29 Oeste 0 -- -- 71
2019-12-12 16:00:00 14.9 9 Oeste 24 Noroeste 0 -- -- 61
2019-12-12 15:00:00 15.6 14 Oeste 33 Noroeste 0 -- -- 54
2019-12-12 14:00:00 17 17 Oeste 36 Noroeste 0 -- -- 47
2019-12-12 13:00:00 17 24 Noroeste 37 Noroeste 0 -- -- 49
2019-12-12 12:00:00 17.2 13 Noroeste 31 Noroeste 0 -- -- 49
2019-12-12 11:00:00 13.3 13 Oeste 27 Oeste 0 -- -- 62
2019-12-12 10:00:00 13.9 12 Oeste 19 Oeste 0 -- -- 58
2019-12-12 09:00:00 11.7 4 Noroeste 19 Noroeste 0 -- -- 65
2019-12-12 08:00:00 11.2 11 Noroeste 22 Noroeste 0 -- -- 61
2019-12-12 07:00:00 11.8 7 Oeste 15 Norte 0 -- -- 59
2019-12-12 06:00:00 11.4 4 Sudoeste 27 Noroeste 0 -- -- 62
2019-12-12 05:00:00 9.6 9 Oeste 19 Oeste 0 -- -- 71
2019-12-12 04:00:00 8.5 2 Norte 12 Noroeste 0 -- -- 83
2019-12-12 03:00:00 9.4 9 Norte 14 Norte 0 -- -- 86
2019-12-12 02:00:00 11.3 9 Oeste 23 Noroeste 0 -- -- 80
2019-12-12 01:00:00 11.3 15 Oeste 23 Oeste 0 -- -- 79
2019-12-12 00:00:00 10.7 5 Oeste 13 Norte 0 -- -- 78
2019-12-11 23:00:00 11.5 5 Norte 32 Este 0 -- -- 76
2019-12-11 22:00:00 12.6 18 Nordeste 39 Nordeste 0 -- -- 74
2019-12-11 21:00:00 12.2 10 Nordeste 45 Norte 0.4 -- -- 82
2019-12-11 20:00:00 12.5 13 Norte 46 Norte 0 -- -- 79
2019-12-11 19:00:00 13.2 27 Norte 55 Norte 0 -- -- 74
2019-12-11 18:00:00 14 9 Noroeste 15 Noroeste 0 -- -- 73
2019-12-11 17:00:00 15.1 5 Noroeste 16 Oeste 0 -- -- 62
2019-12-11 16:00:00 17.3 9 Oeste 22 Oeste 0 -- -- 61
2019-12-11 15:00:00 17.5 13 Oeste 24 Oeste 0 -- -- 63
2019-12-11 14:00:00 19.9 14 Oeste 24 Oeste 0 -- -- 58
2019-12-11 13:00:00 19 5 Oeste 23 Oeste 0 -- -- 64
2019-12-11 12:00:00 16.4 12 Oeste 27 Oeste 0 -- -- 72
2019-12-11 11:00:00 16.1 3 Este 18 Oeste 0 -- -- 70
2019-12-11 10:00:00 16.4 3 Oeste 8 Noroeste 0 -- -- 71
2019-12-11 09:00:00 8.7 3 Sur 9 Noroeste 0 -- -- 93
2019-12-11 08:00:00 5.2 4 Norte 8 Noroeste 0 -- -- 96
2019-12-11 07:00:00 4.6 7 Noroeste 14 Noroeste 0 -- -- 95
2019-12-11 06:00:00 5.3 7 Noroeste 13 Noroeste 0 -- -- 94
2019-12-11 05:00:00 5.2 11 Noroeste 13 Noroeste 0 -- -- 94
2019-12-11 04:00:00 5.5 8 Noroeste 13 Noroeste 0 -- -- 93
2019-12-11 03:00:00 5.3 8 Noroeste 11 Norte 0 -- -- 92
2019-12-11 02:00:00 5.1 8 Noroeste 12 Noroeste 0 -- -- 89
2019-12-11 01:00:00 6.1 9 Norte 15 Noroeste 0 -- -- 88
2019-12-11 00:00:00 5.6 10 Noroeste 14 Noroeste 0 -- -- 91
2019-12-10 23:00:00 5.8 9 Noroeste 14 Noroeste 0 -- -- 91
2019-12-10 22:00:00 6.1 9 Noroeste 12 Norte 0 -- -- 90
2019-12-10 21:00:00 6.4 8 Noroeste 12 Noroeste 0 -- -- 90
2019-12-10 20:00:00 6.6 9 Noroeste 12 Norte 0 -- -- 86
2019-12-10 19:00:00 7.5 8 Noroeste 12 Noroeste 0 -- -- 81
2019-12-10 18:00:00 8.7 5 Noroeste 8 Noroeste 0 -- -- 73
2019-12-10 17:00:00 11.9 5 Noroeste 14 Norte 0 -- -- 62
2019-12-10 16:00:00 14.9 9 Norte 24 Norte 0 -- -- 45
2019-12-10 15:00:00 15.2 15 Norte 35 Norte 0 -- -- 42
2019-12-10 14:00:00 14.9 22 Norte 44 Norte 0 -- -- 46
2019-12-10 13:00:00 14.8 27 Norte 62 Norte 0 -- -- 48
2019-12-10 12:00:00 14.8 26 Nordeste 53 Norte 0 -- -- 44
2019-12-10 11:00:00 14.7 24 Nordeste 45 Norte 0 -- -- 47
2019-12-10 10:00:00 14 26 Norte 47 Nordeste 0 -- -- 49
2019-12-10 09:00:00 13 17 Nordeste 45 Nordeste 0 -- -- 62
2019-12-10 08:00:00 12.6 17 Nordeste 30 Nordeste 0 -- -- 67
2019-12-10 07:00:00 12.5 10 Norte 22 Nordeste 0 -- -- 69
2019-12-10 06:00:00 11.8 6 Norte 19 Nordeste 0 -- -- 78
2019-12-10 05:00:00 12.3 14 Nordeste 26 Nordeste 0 -- -- 76
2019-12-10 04:00:00 12.5 10 Norte 20 Noroeste 0 -- -- 71
2019-12-10 03:00:00 12.5 10 Norte 23 Noroeste 0 -- -- 73
2019-12-10 02:00:00 10.8 2 Noroeste 8 Noroeste 0 -- -- 81
2019-12-10 01:00:00 11.1 4 Noroeste 23 Norte 0 -- -- 75
2019-12-10 00:00:00 12.5 12 Norte 27 Norte 0 -- -- 72
2019-12-09 23:00:00 13.5 18 Norte 36 Norte 0 -- -- 66
2019-12-09 22:00:00 13.1 12 Norte 36 Norte 0 -- -- 65
2019-12-09 21:00:00 13.9 22 Norte 47 Norte 0 -- -- 64
2019-12-09 20:00:00 13.7 12 Noroeste 33 Noroeste 0 -- -- 64
2019-12-09 19:00:00 14.2 18 Norte 54 Noroeste 0 -- -- 61
2019-12-09 18:00:00 14.2 23 Norte 45 Norte 0 -- -- 59
2019-12-09 17:00:00 14.6 9 Norte 39 Norte 0 -- -- 58
2019-12-09 16:00:00 16.2 21 Norte 45 Noroeste 0 -- -- 54
2019-12-09 15:00:00 17.1 21 Norte 40 Norte 0 -- -- 50
2019-12-09 14:00:00 18.7 17 Norte 39 Noroeste 0 -- -- 44
2019-12-09 13:00:00 19.7 20 Noroeste 42 Noroeste 0 -- -- 38
2019-12-09 12:00:00 20.3 19 Noroeste 46 Noroeste 0 -- -- 35
2019-12-09 11:00:00 18 12 Norte 28 Norte 0 -- -- 44
2019-12-09 10:00:00 16.2 9 Norte 15 Norte 0 -- -- 74
2019-12-09 09:00:00 13.2 8 Noroeste 13 Noroeste 0 -- -- 92
2019-12-09 08:00:00 9 8 Noroeste 12 Noroeste 0 -- -- 97
2019-12-09 07:00:00 9.2 5 Noroeste 8 Noroeste 0 -- -- 96
2019-12-09 06:00:00 10.5 6 Noroeste 10 Noroeste 0 -- -- 95
2019-12-09 05:00:00 12.5 8 Noroeste 25 Oeste 0 -- -- 91
2019-12-09 04:00:00 12.5 5 Sudoeste 11 Sudoeste 0 -- -- 94
2019-12-09 03:00:00 12.9 0 Calma 6 Este 0 -- -- 91
2019-12-09 02:00:00 13.5 3 Este 22 Norte 0 -- -- 87
2019-12-09 01:00:00 13.7 4 Nordeste 11 Norte 0 -- -- 88
2019-12-09 00:00:00 13 5 Noroeste 15 Norte 0 -- -- 91
2019-12-08 23:00:00 11.7 5 Este 14 Noroeste 0 -- -- 92
2019-12-08 22:00:00 12.1 4 Norte 19 Oeste 0 -- -- 91
2019-12-08 21:00:00 11.9 6 Noroeste 14 Noroeste 0 -- -- 90
2019-12-08 20:00:00 11.8 5 Norte 9 Norte 0 -- -- 91
2019-12-08 19:00:00 12.6 6 Norte 12 Norte 0 -- -- 89
2019-12-08 18:00:00 13.3 5 Noroeste 23 Oeste 0 -- -- 84
2019-12-08 17:00:00 14.9 12 Oeste 21 Oeste 0 -- -- 79
2019-12-08 16:00:00 17.9 12 Oeste 20 Oeste 0 -- -- 69
2019-12-08 15:00:00 18.7 10 Oeste 17 Oeste 0 -- -- 68
2019-12-08 14:00:00 18 7 Sudoeste 15 Sudoeste 0 -- -- 73
2019-12-08 13:00:00 15.7 4 Oeste 17 Sudoeste 0 -- -- 81
2019-12-08 12:00:00 17.9 6 Sudoeste 15 Oeste 0 -- -- 74
2019-12-08 11:00:00 17.4 2 Este 7 Noroeste 0 -- -- 77
2019-12-08 10:00:00 15.3 6 Noroeste 11 Noroeste 0 -- -- 94
2019-12-08 09:00:00 10.3 7 Norte 14 Noroeste 0.2 -- -- 100
2019-12-08 08:00:00 7.3 7 Norte 9 Noroeste 0 -- -- 100
2019-12-08 07:00:00 7.5 6 Norte 10 Noroeste 0 -- -- 99
2019-12-08 06:00:00 7.1 8 Norte 10 Norte 0 -- -- 100
2019-12-08 05:00:00 6.9 7 Norte 10 Norte 0 -- -- 99
2019-12-08 04:00:00 7.5 8 Norte 13 Norte 0 -- -- 99
2019-12-08 03:00:00 7.6 9 Norte 12 Noroeste 0.2 -- -- 98
2019-12-08 02:00:00 7.9 9 Norte 10 Norte 0 -- -- 98
2019-12-08 01:00:00 8.9 6 Norte 10 Noroeste 0 -- -- 98
2019-12-08 00:00:00 9.5 7 Noroeste 12 Noroeste 0 -- -- 98
2019-12-07 23:00:00 9.2 7 Noroeste 12 Norte 0 -- -- 98
2019-12-07 22:00:00 9.2 8 Noroeste 11 Noroeste 0 -- -- 97
2019-12-07 21:00:00 9.1 6 Norte 10 Norte 0 -- -- 96
2019-12-07 20:00:00 9.9 8 Noroeste 10 Noroeste 0 -- -- 96
2019-12-07 19:00:00 10.8 7 Noroeste 9 Noroeste 0 -- -- 94
2019-12-07 18:00:00 12.3 3 Noroeste 8 Norte 0 -- -- 92
2019-12-07 17:00:00 14 4 Norte 11 Sur 0 -- -- 87
2019-12-07 16:00:00 16.1 8 Sur 13 Sur 0 -- -- 77
2019-12-07 15:00:00 17.4 7 Sur 13 Sur 0 -- -- 73
2019-12-07 14:00:00 17.6 4 Nordeste 12 Norte 0 -- -- 73
2019-12-07 13:00:00 19 4 Sudeste 13 Sudeste 0 -- -- 65
2019-12-07 12:00:00 17.3 2 Sudeste 5 Sudeste 0 -- -- 77
2019-12-07 11:00:00 14.5 2 Noroeste 9 Noroeste 0 -- -- 97
2019-12-07 10:00:00 10.8 4 Noroeste 12 Norte 0 -- -- 99
2019-12-07 09:00:00 8.8 8 Noroeste 12 Norte 0 -- -- 100
2019-12-07 08:00:00 8 8 Noroeste 10 Noroeste 0 -- -- 99
2019-12-07 07:00:00 9.2 6 Noroeste 11 Noroeste 0.2 -- -- 98
2019-12-07 06:00:00 8.5 8 Noroeste 11 Noroeste 0 -- -- 99
2019-12-07 05:00:00 8.5 8 Noroeste 12 Noroeste 0 -- -- 99
2019-12-07 04:00:00 9 8 Norte 13 Noroeste 0 -- -- 98
2019-12-07 03:00:00 8.6 9 Norte 13 Norte 0 -- -- 98
2019-12-07 02:00:00 9.1 8 Norte 12 Noroeste 0 -- -- 98
2019-12-07 01:00:00 9.3 7 Norte 11 Noroeste 0 -- -- 98
2019-12-07 00:00:00 9.5 8 Norte 11 Noroeste 0 -- -- 97
2019-12-06 23:00:00 9.5 8 Norte 11 Norte 0 -- -- 97
2019-12-06 22:00:00 9.8 6 Norte 12 Noroeste 0 -- -- 96
2019-12-06 21:00:00 10.4 6 Noroeste 11 Noroeste 0 -- -- 96
2019-12-06 20:00:00 10.8 7 Noroeste 12 Norte 0 -- -- 95
2019-12-06 19:00:00 11.3 7 Noroeste 10 Noroeste 0 -- -- 94
2019-12-06 18:00:00 12.4 5 Noroeste 8 Noroeste 0 -- -- 91
2019-12-06 17:00:00 14.6 6 Nordeste 12 Nordeste 0 -- -- 84
2019-12-06 16:00:00 15.6 8 Nordeste 16 Nordeste 0 -- -- 80
2019-12-06 15:00:00 16.4 5 Este 14 Este 0 -- -- 78
2019-12-06 14:00:00 18.2 5 Este 12 Sudeste 0.2 -- -- 73
2019-12-06 13:00:00 19.4 4 Sur 13 Sur 0 -- -- 71
2019-12-06 12:00:00 18.4 7 Sur 18 Sudeste 0 -- -- 74
2019-12-06 11:00:00 16.9 4 Nordeste 8 Nordeste 0 -- -- 79
2019-12-06 10:00:00 18.1 3 Noroeste 9 Norte 0 -- -- 86
2019-12-06 09:00:00 13.3 5 Noroeste 9 Noroeste 0 -- -- 97
2019-12-06 08:00:00 10.7 6 Noroeste 11 Noroeste 0 -- -- 99
2019-12-06 07:00:00 10.5 8 Noroeste 12 Noroeste 0 -- -- 99
2019-12-06 06:00:00 9.8 7 Noroeste 12 Norte 0 -- -- 98
2019-12-06 05:00:00 10.2 7 Noroeste 11 Noroeste 0 -- -- 98
2019-12-06 04:00:00 10.1 8 Noroeste 11 Noroeste 0 -- -- 99
2019-12-06 03:00:00 9.9 7 Noroeste 12 Noroeste 0.2 -- -- 98
2019-12-06 02:00:00 9.7 8 Noroeste 12 Noroeste 0 -- -- 98
2019-12-06 01:00:00 9.3 9 Norte 11 Noroeste 0 -- -- 98
2019-12-06 00:00:00 9.3 8 Noroeste 10 Norte 0 -- -- 98
2019-12-05 23:00:00 10 8 Noroeste 12 Noroeste 0 -- -- 97
2019-12-05 22:00:00 10.1 8 Noroeste 12 Norte 0 -- -- 97
2019-12-05 21:00:00 10.9 7 Norte 11 Norte 0 -- -- 97
2019-12-05 20:00:00 11.1 7 Norte 10 Noroeste 0 -- -- 96
2019-12-05 19:00:00 11.2 7 Norte 10 Norte 0 -- -- 95
2019-12-05 18:00:00 12.3 6 Noroeste 9 Noroeste 0 -- -- 92
2019-12-05 17:00:00 14.6 3 Oeste 7 Norte 0 -- -- 87
2019-12-05 16:00:00 17.6 6 Noroeste 18 Sudoeste 0 -- -- 73
2019-12-05 15:00:00 16.4 12 Sudoeste 21 Oeste 0 -- -- 75
2019-12-05 14:00:00 16.4 11 Sudoeste 19 Sudoeste 0 -- -- 78
2019-12-05 13:00:00 18.5 7 Sudoeste 16 Noroeste 0 -- -- 70
2019-12-05 12:00:00 18 13 Noroeste 20 Noroeste 0 -- -- 68
2019-12-05 11:00:00 18.8 7 Noroeste 13 Noroeste 0 -- -- 67
2019-12-05 10:00:00 16.2 5 Noroeste 13 Noroeste 0 -- -- 88
2019-12-05 09:00:00 11.6 6 Norte 12 Noroeste 0 -- -- 99
2019-12-05 08:00:00 8.3 8 Noroeste 10 Norte 0 -- -- 99
2019-12-05 07:00:00 8.7 8 Norte 11 Norte 0.2 -- -- 99
2019-12-05 06:00:00 8.8 7 Noroeste 9 Noroeste 0 -- -- 99
2019-12-05 05:00:00 9.4 5 Noroeste 8 Norte 0 -- -- 99
2019-12-05 04:00:00 9.8 4 Norte 8 Norte 0 -- -- 99
2019-12-05 03:00:00 9 6 Norte 10 Noroeste 0 -- -- 99
2019-12-05 02:00:00 9.1 8 Norte 12 Noroeste 0 -- -- 99
2019-12-05 01:00:00 9.1 8 Noroeste 13 Noroeste 0.2 -- -- 98
2019-12-05 00:00:00 9.2 9 Noroeste 13 Noroeste 0 -- -- 99
2019-12-04 23:00:00 9.6 8 Norte 13 Noroeste 0 -- -- 98
2019-12-04 22:00:00 9.8 8 Noroeste 15 Noroeste 0 -- -- 98
2019-12-04 21:00:00 9.5 10 Norte 14 Noroeste 0 -- -- 98
2019-12-04 20:00:00 9.8 9 Noroeste 13 Noroeste 0 -- -- 98
2019-12-04 19:00:00 10.1 7 Noroeste 10 Noroeste 0 -- -- 97
2019-12-04 18:00:00 10.5 6 Noroeste 10 Noroeste 0 -- -- 96
2019-12-04 17:00:00 11.6 5 Norte 10 Norte 0 -- -- 95
2019-12-04 16:00:00 12 4 Norte 13 Noroeste 0 -- -- 95
2019-12-04 15:00:00 10.8 9 Norte 17 Nordeste 0.2 -- -- 95
2019-12-04 14:00:00 10.4 7 Norte 15 Este 1.2 -- -- 94
2019-12-04 13:00:00 10.8 6 Este 40 Sur 9 -- -- 94
2019-12-04 12:00:00 14.9 21 Sudeste 41 Este 0.4 -- -- 84
2019-12-04 11:00:00 14.5 18 Sudeste 44 Sudeste 0.4 -- -- 88
2019-12-04 10:00:00 16.4 18 Sudeste 37 Sudeste 0 -- -- 78
2019-12-04 09:00:00 16.2 19 Sudeste 47 Sur 0 -- -- 80
2019-12-04 08:00:00 16.7 24 Sudeste 46 Sudeste 0 -- -- 91
2019-12-04 07:00:00 16.4 27 Sudeste 48 Sudeste 1.6 -- -- 93
2019-12-04 06:00:00 16.2 26 Sudeste 58 Sudeste 2 -- -- 94
2019-12-04 05:00:00 16.6 33 Sudeste 59 Sudeste 0 -- -- 89
2019-12-04 04:00:00 16.2 33 Sudeste 56 Sur 4.6 -- -- 92
2019-12-04 03:00:00 15.7 32 Sudeste 63 Este 5.4 -- -- 93
2019-12-04 02:00:00 16.1 28 Sudeste 65 Este 3.2 -- -- 92
2019-12-04 01:00:00 16.3 31 Este 66 Sudeste 0.4 -- -- 89
2019-12-04 00:00:00 16.7 27 Este 58 Este 0 -- -- 86
2019-12-03 23:00:00 16.2 22 Este 50 Este 0.2 -- -- 85
2019-12-03 22:00:00 16.3 23 Este 44 Este 0 -- -- 85
2019-12-03 21:00:00 16.1 18 Este 42 Este 0 -- -- 84
2019-12-03 20:00:00 15.9 19 Este 45 Este 0 -- -- 83
2019-12-03 19:00:00 15.4 21 Este 39 Nordeste 0 -- -- 84
2019-12-03 18:00:00 15 22 Este 38 Este 0 -- -- 80
2019-12-03 17:00:00 14.8 18 Este 32 Este 0 -- -- 76
2019-12-03 16:00:00 14.6 15 Este 28 Este 0 -- -- 78
2019-12-03 15:00:00 14.6 8 Este 26 Sudeste 0 -- -- 76
2019-12-03 14:00:00 15.5 14 Este 27 Este 0 -- -- 72
2019-12-03 13:00:00 14.6 14 Este 35 Nordeste 0 -- -- 74
2019-12-03 12:00:00 13.9 22 Este 40 Este 0 -- -- 74
2019-12-03 11:00:00 13.3 17 Nordeste 37 Nordeste 0 -- -- 75
2019-12-03 10:00:00 12.7 17 Nordeste 39 Nordeste 0 -- -- 74
2019-12-03 09:00:00 12.4 14 Nordeste 41 Este 0 -- -- 74
2019-12-03 08:00:00 12.2 16 Nordeste 39 Este 0 -- -- 73
2019-12-03 07:00:00 12.1 14 Nordeste 37 Este 0 -- -- 72
2019-12-03 06:00:00 12.4 16 Nordeste 35 Nordeste 0 -- -- 72
2019-12-03 05:00:00 12.6 23 Este 37 Nordeste 0 -- -- 71
2019-12-03 04:00:00 12.4 14 Nordeste 33 Este 0.2 -- -- 76
2019-12-03 03:00:00 13.2 17 Nordeste 41 Nordeste 0 -- -- 74
2019-12-03 02:00:00 13.4 20 Este 36 Nordeste 0 -- -- 75
2019-12-03 01:00:00 13.6 16 Este 37 Este 0 -- -- 74
2019-12-03 00:00:00 13.8 18 Este 32 Este 0 -- -- 72
2019-12-02 23:00:00 13.7 16 Este 33 Nordeste 0 -- -- 73
2019-12-02 22:00:00 13.9 20 Este 37 Este 0 -- -- 72
2019-12-02 21:00:00 13.6 17 Este 40 Este 0 -- -- 73
2019-12-02 20:00:00 13.7 21 Este 36 Este 0 -- -- 75
2019-12-02 19:00:00 13.6 13 Este 36 Este 0 -- -- 75
2019-12-02 18:00:00 13.8 16 Este 35 Este 0 -- -- 74
2019-12-02 17:00:00 13.8 15 Nordeste 38 Este 0 -- -- 76
2019-12-02 16:00:00 14.1 19 Nordeste 36 Nordeste 0 -- -- 74
2019-12-02 15:00:00 14.3 22 Este 39 Nordeste 0 -- -- 75
2019-12-02 14:00:00 14.4 23 Nordeste 36 Este 0 -- -- 77
2019-12-02 13:00:00 14.5 20 Nordeste 36 Este 0.2 -- -- 79
2019-12-02 12:00:00 14.2 14 Nordeste 30 Nordeste 0.2 -- -- 79
2019-12-02 11:00:00 14.4 15 Nordeste 39 Este 0 -- -- 82
2019-12-02 10:00:00 14.4 16 Nordeste 31 Nordeste 0 -- -- 85
2019-12-02 09:00:00 13.5 9 Nordeste 26 Nordeste 0 -- -- 94
2019-12-02 08:00:00 12.9 6 Nordeste 26 Este 2.6 -- -- 96
2019-12-02 07:00:00 13.5 8 Nordeste 27 Este 4.8 -- -- 95
2019-12-02 06:00:00 14.7 4 Nordeste 12 Este 0.2 -- -- 93
2019-12-02 05:00:00 14.7 4 Este 13 Este 0 -- -- 93
2019-12-02 04:00:00 14.6 5 Este 14 Este 0 -- -- 93
2019-12-02 03:00:00 14.7 3 Nordeste 17 Nordeste 0 -- -- 93
2019-12-02 02:00:00 13.9 4 Noroeste 10 Noroeste 0.4 -- -- 96
2019-12-02 01:00:00 13.6 6 Noroeste 9 Noroeste 0 -- -- 95
2019-12-02 00:00:00 13.5 5 Noroeste 10 Noroeste 0 -- -- 95
2019-12-01 23:00:00 13.3 6 Noroeste 8 Noroeste 0 -- -- 95
2019-12-01 22:00:00 13.5 4 Noroeste 8 Norte 0 -- -- 94
2019-12-01 21:00:00 14.2 3 Noroeste 9 Nordeste 0 -- -- 90
2019-12-01 20:00:00 15.5 7 Nordeste 12 Nordeste 0 -- -- 86
2019-12-01 19:00:00 15.8 4 Nordeste 10 Nordeste 0 -- -- 83
2019-12-01 18:00:00 16.2 3 Este 13 Nordeste 0 -- -- 84
2019-12-01 17:00:00 17.5 3 Norte 19 Sudoeste 0 -- -- 78
2019-12-01 16:00:00 19.1 7 Oeste 16 Noroeste 0 -- -- 68
2019-12-01 15:00:00 20.4 12 Oeste 22 Oeste 0 -- -- 63
2019-12-01 14:00:00 20.8 10 Oeste 27 Oeste 0 -- -- 62
2019-12-01 13:00:00 20.6 13 Oeste 28 Noroeste 0 -- -- 64
2019-12-01 12:00:00 20.6 11 Oeste 26 Oeste 0 -- -- 63
2019-12-01 11:00:00 19.7 5 Oeste 22 Noroeste 0 -- -- 73
2019-12-01 10:00:00 18.6 6 Oeste 15 Oeste 0 -- -- 76
2019-12-01 09:00:00 15.8 9 Oeste 20 Noroeste 0 -- -- 84
2019-12-01 08:00:00 15.4 5 Oeste 23 Oeste 0 -- -- 84
2019-12-01 07:00:00 15 8 Oeste 17 Sudoeste 0 -- -- 87
2019-12-01 06:00:00 14.8 7 Sudoeste 13 Oeste 0 -- -- 91
2019-12-01 05:00:00 14.8 4 Sur 6 Sur 0 -- -- 92
2019-12-01 04:00:00 14.9 5 Sudoeste 14 Oeste 0 -- -- 91
2019-12-01 03:00:00 14.9 2 Sudeste 15 Sudoeste 0 -- -- 91
2019-12-01 02:00:00 15.4 9 Sudoeste 26 Oeste 0 -- -- 90
2019-12-01 01:00:00 15.1 12 Sudoeste 20 Sudoeste 0 -- -- 93
2019-12-01 00:00:00 15.2 9 Sudoeste 22 Oeste 0 -- -- 93
2019-11-30 23:00:00 14.8 4 Oeste 15 Oeste 0 -- -- 93
2019-11-30 22:00:00 14.6 5 Sur 13 Sudoeste 0 -- -- 92
2019-11-30 21:00:00 14.9 4 Sur 15 Sur 0 -- -- 90
2019-11-30 20:00:00 15.3 7 Sudoeste 14 Oeste 0 -- -- 89
2019-11-30 19:00:00 15.2 2 Sudoeste 13 Oeste 0 -- -- 91
2019-11-30 18:00:00 15.6 4 Sudoeste 13 Oeste 0 -- -- 87
2019-11-30 17:00:00 16.9 8 Sudoeste 20 Sudoeste 0 -- -- 80
2019-11-30 16:00:00 18.7 14 Oeste 23 Sudoeste 0 -- -- 73
2019-11-30 15:00:00 18.3 15 Sudoeste 24 Sudoeste 0 -- -- 80
2019-11-30 14:00:00 18.9 14 Sudoeste 23 Sudoeste 0 -- -- 76
2019-11-30 13:00:00 19.6 9 Oeste 19 Oeste 0 -- -- 73
2019-11-30 12:00:00 18.8 12 Oeste 18 Oeste 0 -- -- 76
2019-11-30 11:00:00 16.7 10 Sudoeste 20 Oeste 0 -- -- 85
2019-11-30 10:00:00 18 6 Oeste 15 Oeste 0 -- -- 83
2019-11-30 09:00:00 13.9 6 Norte 12 Noroeste 0 -- -- 96
2019-11-30 08:00:00 10.9 6 Noroeste 12 Noroeste 0 -- -- 99
2019-11-30 07:00:00 12.1 8 Noroeste 14 Oeste 0 -- -- 98
2019-11-30 06:00:00 11.4 5 Noroeste 11 Noroeste 0 -- -- 98
2019-11-30 05:00:00 11.5 6 Noroeste 9 Noroeste 0 -- -- 98
2019-11-30 04:00:00 11.9 6 Norte 8 Noroeste 0 -- -- 98
2019-11-30 03:00:00 11.5 6 Norte 10 Noroeste 0 -- -- 98
2019-11-30 02:00:00 11.1 7 Noroeste 10 Noroeste 0 -- -- 97
2019-11-30 01:00:00 10.8 7 Noroeste 10 Noroeste 0 -- -- 97
2019-11-30 00:00:00 10.8 9 Noroeste 11 Noroeste 0 -- -- 97
2019-11-29 23:00:00 10.8 8 Noroeste 11 Norte 0 -- -- 96
2019-11-29 22:00:00 11 8 Noroeste 11 Noroeste 0 -- -- 95
2019-11-29 21:00:00 11.6 8 Noroeste 12 Noroeste 0 -- -- 94
2019-11-29 20:00:00 11.9 9 Noroeste 12 Norte 0 -- -- 92
2019-11-29 19:00:00 12.6 9 Noroeste 11 Noroeste 0 -- -- 90
2019-11-29 18:00:00 13.7 6 Noroeste 8 Noroeste 0 -- -- 88
2019-11-29 17:00:00 16.2 3 Noroeste 4 Oeste 0 -- -- 79
2019-11-29 16:00:00 18.1 3 Sudeste 9 Sur 0 -- -- 72
2019-11-29 15:00:00 19.2 5 Sur 12 Sudeste 0 -- -- 64
2019-11-29 14:00:00 19.4 5 Sur 12 Sur 0 -- -- 65
2019-11-29 13:00:00 19.7 6 Sudoeste 13 Sudeste 0 -- -- 71
2019-11-29 12:00:00 20.9 0 Calma 14 Noroeste 0 -- -- 61
2019-11-29 11:00:00 20.8 10 Noroeste 19 Noroeste 0 -- -- 61
2019-11-29 10:00:00 17.3 0 Calma 7 Norte 0 -- -- 78
2019-11-29 09:00:00 12.8 3 Norte 9 Noroeste 0 -- -- 94
2019-11-29 08:00:00 11.4 0 Calma 11 Noroeste 0 -- -- 92
2019-11-29 07:00:00 13.1 8 Noroeste 15 Nordeste 0 -- -- 90
2019-11-29 06:00:00 13.3 5 Noroeste 15 Noroeste 0 -- -- 86
2019-11-29 05:00:00 13.5 5 Noroeste 14 Noroeste 0 -- -- 84
2019-11-29 04:00:00 14.2 3 Oeste 19 Sudoeste 0 -- -- 81
2019-11-29 03:00:00 12.8 5 Norte 18 Oeste 0 -- -- 90
2019-11-29 02:00:00 12.1 4 Noroeste 13 Noroeste 0 -- -- 94
2019-11-29 01:00:00 12.3 5 Oeste 13 Oeste 0 -- -- 94
2019-11-29 00:00:00 12.5 6 Noroeste 13 Noroeste 0 -- -- 91
2019-11-28 23:00:00 13.8 7 Oeste 15 Oeste 0 -- -- 89
2019-11-28 22:00:00 13.5 4 Sudeste 13 Sudeste 0 -- -- 86
2019-11-28 21:00:00 14.6 8 Este 20 Oeste 0 -- -- 81
2019-11-28 20:00:00 14.9 12 Oeste 30 Noroeste 0 -- -- 80
2019-11-28 19:00:00 14.7 18 Noroeste 30 Noroeste 0 -- -- 81
2019-11-28 18:00:00 15.3 19 Oeste 39 Oeste 0 -- -- 75
2019-11-28 17:00:00 16.5 24 Oeste 35 Oeste 0 -- -- 69
2019-11-28 16:00:00 18.4 19 Oeste 34 Noroeste 0 -- -- 63
2019-11-28 15:00:00 20.5 17 Oeste 31 Oeste 0 -- -- 57
2019-11-28 14:00:00 22 14 Oeste 27 Oeste 0 -- -- 45
2019-11-28 13:00:00 22 13 Oeste 25 Oeste 0 -- -- 46
2019-11-28 12:00:00 20.8 13 Oeste 22 Noroeste 0 -- -- 50
2019-11-28 11:00:00 19.8 13 Oeste 24 Oeste 0 -- -- 57
2019-11-28 10:00:00 18.7 12 Noroeste 24 Oeste 0 -- -- 59
2019-11-28 09:00:00 18.5 7 Noroeste 17 Noroeste 0 -- -- 59
2019-11-28 08:00:00 13.6 11 Noroeste 26 Oeste 0 -- -- 75
2019-11-28 07:00:00 13.5 9 Noroeste 20 Noroeste 0 -- -- 74
2019-11-28 06:00:00 11.1 8 Noroeste 12 Noroeste 0 -- -- 87
2019-11-28 05:00:00 10.7 8 Norte 10 Norte 0 -- -- 91
2019-11-28 04:00:00 12.4 2 Nordeste 15 Norte 0 -- -- 84
2019-11-28 03:00:00 13.2 7 Noroeste 22 Noroeste 0 -- -- 82
2019-11-28 02:00:00 13 8 Noroeste 18 Oeste 0 -- -- 83
2019-11-28 01:00:00 13.8 3 Oeste 22 Noroeste 0 -- -- 81
2019-11-28 00:00:00 14.2 8 Oeste 22 Oeste 0 -- -- 83
2019-11-27 23:00:00 13.8 7 Noroeste 16 Oeste 0 -- -- 85
2019-11-27 22:00:00 11.8 3 Nordeste 9 Noroeste 0 -- -- 95
2019-11-27 21:00:00 11.5 5 Noroeste 10 Noroeste 0 -- -- 94
2019-11-27 20:00:00 12.3 0 Calma 9 Noroeste 0 -- -- 92
2019-11-27 19:00:00 13.5 4 Norte 8 Oeste 0 -- -- 88
2019-11-27 18:00:00 15.5 0 Calma 11 Sudeste 0 -- -- 81
2019-11-27 17:00:00 17.9 10 Sudeste 15 Sudeste 0 -- -- 73
2019-11-27 16:00:00 19.9 4 Este 15 Norte 0 -- -- 61
2019-11-27 15:00:00 20.1 12 Nordeste 22 Oeste 0 -- -- 62
2019-11-27 14:00:00 22 12 Noroeste 28 Noroeste 0 -- -- 52
2019-11-27 06:00:00 -- -- -- -- -- -- -- -- --
2019-11-27 05:00:00 16.2 31 Oeste 51 Oeste 0 -- -- 87
2019-11-27 04:00:00 16 28 Oeste 49 Oeste 0 -- -- 87
2019-11-27 03:00:00 16 20 Oeste 42 Oeste 0 -- -- 89
2019-11-27 02:00:00 16 15 Oeste 39 Noroeste 0 -- -- 89
2019-11-27 01:00:00 15.9 5 Noroeste 31 Norte 0 -- -- 89
2019-11-27 00:00:00 15 3 Nordeste 19 Sudoeste 0 -- -- 89
2019-11-26 23:00:00 15.8 7 Sudoeste 27 Oeste 0 -- -- 87
2019-11-26 22:00:00 15.7 7 Oeste 31 Oeste 0 -- -- 84
2019-11-26 21:00:00 15.3 4 Sur 21 Sudoeste 0 -- -- 88
2019-11-26 20:00:00 15.2 4 Oeste 18 Oeste 0 -- -- 86
2019-11-26 19:00:00 15.7 10 Oeste 27 Noroeste 0 -- -- 84
2019-11-26 18:00:00 16.3 16 Oeste 29 Oeste 0 -- -- 81
2019-11-26 17:00:00 17.1 13 Oeste 30 Oeste 0 -- -- 68
2019-11-26 16:00:00 19.3 16 Oeste 29 Oeste 0 -- -- 64
2019-11-26 15:00:00 20.2 17 Oeste 30 Oeste 0 -- -- 63
2019-11-26 14:00:00 21.1 13 Oeste 27 Oeste 0 -- -- 65
2019-11-26 13:00:00 20.6 13 Oeste 24 Sudoeste 0 -- -- 67
2019-11-26 12:00:00 19.1 14 Sudoeste 27 Sudoeste 0 -- -- 77
2019-11-26 11:00:00 17.9 14 Sudoeste 22 Sudoeste 0 -- -- 81
2019-11-26 10:00:00 17.3 15 Sudoeste 25 Sudoeste 0 -- -- 81
2019-11-26 09:00:00 15 0 Calma 8 Noroeste 0 -- -- 81
2019-11-26 08:00:00 9 5 Noroeste 9 Noroeste 0 -- -- 93
2019-11-26 07:00:00 9.3 3 Norte 9 Noroeste 0 -- -- 90
2019-11-26 06:00:00 9 4 Norte 12 Noroeste 0 -- -- 90
2019-11-26 05:00:00 9.9 5 Norte 8 Norte 0 -- -- 88
2019-11-26 04:00:00 9.5 5 Noroeste 9 Noroeste 0 -- -- 90
2019-11-26 03:00:00 9.7 5 Norte 13 Noroeste 0 -- -- 89
2019-11-26 02:00:00 9.5 8 Norte 12 Noroeste 0 -- -- 91
2019-11-26 01:00:00 9.3 9 Noroeste 11 Norte 0 -- -- 91
2019-11-26 00:00:00 10 7 Norte 12 Noroeste 0 -- -- 88
2019-11-25 23:00:00 11 9 Noroeste 13 Noroeste 0 -- -- 84
2019-11-25 22:00:00 12.2 9 Norte 17 Nordeste 0 -- -- 81
2019-11-25 21:00:00 11.9 7 Noroeste 13 Noroeste 0 -- -- 83
2019-11-25 20:00:00 10.9 8 Noroeste 10 Noroeste 0 -- -- 86
2019-11-25 19:00:00 11.8 3 Noroeste 6 Noroeste 0 -- -- 84
2019-11-25 18:00:00 13.6 5 Noroeste 8 Noroeste 0 -- -- 76
2019-11-25 17:00:00 16.1 5 Noroeste 6 Noroeste 0 -- -- 73
2019-11-25 16:00:00 18.8 4 Sur 10 Sudeste 0 -- -- 64
2019-11-25 15:00:00 20.3 8 Noroeste 19 Norte 0 -- -- 56
2019-11-25 14:00:00 21.3 8 Norte 21 Noroeste 0 -- -- 50
2019-11-25 13:00:00 21.5 7 Oeste 19 Noroeste -- -- -- 51
2019-11-25 12:00:00 19.5 11 Oeste -- -- -- -- -- 56
2019-11-25 11:00:00 -- 0 Calma 20 Oeste -- -- -- --
2019-11-25 10:00:00 16.6 4 Sur 10 Este -- -- -- 64
2019-11-25 09:00:00 12.2 4 Este 8 Noroeste -- -- -- 86
2019-11-25 08:00:00 7.7 4 Norte 10 Noroeste -- -- -- 93
2019-11-25 07:00:00 7.1 4 Noroeste 10 Noroeste -- -- -- 93
2019-11-25 06:00:00 7.4 5 Noroeste 10 Noroeste -- -- -- 92
2019-11-25 05:00:00 7.1 5 Norte 9 Norte -- -- -- 93
2019-11-25 04:00:00 6.5 0 Calma 6 Oeste -- -- -- 93
2019-11-25 03:00:00 6.7 6 Noroeste 12 Noroeste -- -- -- 93
2019-11-25 02:00:00 6.7 9 Noroeste 12 Noroeste -- -- -- 94
2019-11-25 01:00:00 6.4 8 Noroeste 12 Noroeste -- -- -- 94
2019-11-25 00:00:00 6.7 7 Noroeste 10 Noroeste -- -- -- 93
2019-11-24 23:00:00 6.7 5 Norte 11 Noroeste -- -- -- 92
2019-11-24 22:00:00 7.2 5 Norte 8 Noroeste -- -- -- 90
2019-11-24 21:00:00 8.3 6 Noroeste 8 Norte -- -- -- 88
2019-11-24 20:00:00 8.7 8 Noroeste 10 Noroeste -- -- -- 87
2019-11-24 19:00:00 9.3 4 Norte 9 Noroeste -- -- -- 84
2019-11-24 18:00:00 11.3 2 Noroeste 9 Norte -- -- -- 76
2019-11-24 17:00:00 13.9 9 Norte 17 Norte -- -- -- 68
2019-11-24 16:00:00 14.5 12 Norte 23 Norte -- -- -- 66
2019-11-24 15:00:00 16.2 13 Norte 25 Nordeste -- -- -- 59
2019-11-24 14:00:00 16.5 16 Norte 30 Norte -- -- -- 58
2019-11-24 13:00:00 18.1 17 Noroeste 35 Noroeste -- -- -- 53
2019-11-24 12:00:00 17.2 17 Noroeste 38 Noroeste -- -- -- 54
2019-11-24 11:00:00 17.1 17 Noroeste 30 Noroeste -- -- -- 54
2019-11-24 10:00:00 16.1 12 Norte 33 Norte -- -- -- 59
2019-11-24 09:00:00 14.4 10 Norte 24 Noroeste -- -- -- 63
2019-11-24 08:00:00 10.9 14 Noroeste 27 Noroeste -- -- -- 75
2019-11-24 07:00:00 10.5 11 Noroeste 21 Noroeste -- -- -- 77
2019-11-24 06:00:00 12 14 Noroeste 23 Noroeste -- -- -- 70
2019-11-24 05:00:00 10.9 10 Noroeste 18 Noroeste -- -- -- 78
2019-11-24 04:00:00 9.9 5 Oeste 21 Noroeste -- -- -- 82
2019-11-24 03:00:00 9.8 3 Oeste 9 Noroeste -- -- -- 82
2019-11-24 02:00:00 11.4 4 Noroeste 14 Noroeste -- -- -- 74
2019-11-24 01:00:00 12.4 10 Noroeste 18 Noroeste -- -- -- 71
2019-11-24 00:00:00 12.8 5 Oeste 34 Noroeste -- -- -- 69
2019-11-23 23:00:00 13.3 20 Norte 42 Norte -- -- -- 66
2019-11-23 22:00:00 12.9 18 Norte 46 Norte -- -- -- 67
2019-11-23 21:00:00 13.1 17 Noroeste 31 Norte -- -- -- 66
2019-11-23 20:00:00 12.8 10 Norte 32 Noroeste -- -- -- 70
2019-11-23 19:00:00 12.5 17 Noroeste 30 Oeste -- -- -- 74
2019-11-23 18:00:00 12.6 13 Noroeste 28 Noroeste -- -- -- 75
2019-11-23 17:00:00 12.8 8 Noroeste 27 Noroeste -- -- -- 80
2019-11-23 16:00:00 14.8 6 Noroeste 23 Noroeste -- -- -- 81
2019-11-23 15:00:00 12.8 10 Oeste 23 Noroeste -- -- -- 91
2019-11-23 14:00:00 10.5 10 Noroeste 49 Noroeste -- -- -- 90
2019-11-23 13:00:00 17.4 15 Oeste 40 Oeste -- -- -- 58
2019-11-23 12:00:00 16.7 24 Oeste 54 Oeste -- -- -- 64
2019-11-23 11:00:00 15.8 23 Oeste 46 Noroeste -- -- -- 65
2019-11-23 10:00:00 15.7 17 Oeste 32 Noroeste -- -- -- 70
2019-11-23 09:00:00 16.7 13 Oeste 31 Oeste -- -- -- 70
2019-11-23 08:00:00 15.2 7 Oeste 26 Oeste -- -- -- 82
2019-11-23 07:00:00 15.4 9 Oeste 34 Oeste -- -- -- 82
2019-11-23 06:00:00 15.2 14 Oeste 34 Oeste -- -- -- 87
2019-11-23 05:00:00 16.6 27 Oeste 45 Noroeste -- -- -- 87
2019-11-23 04:00:00 16.7 23 Oeste 49 Noroeste -- -- -- 89
2019-11-23 03:00:00 16.3 17 Oeste 39 Oeste -- -- -- 92
2019-11-23 02:00:00 15.5 13 Sudoeste 34 Oeste -- -- -- 93
2019-11-23 01:00:00 15.2 21 Sudoeste 48 Oeste -- -- -- 95
2019-11-23 00:00:00 15.1 24 Sudoeste 54 Sudoeste -- -- -- 95
2019-11-22 23:00:00 14.8 22 Sudoeste 55 Sudoeste -- -- -- 94
2019-11-22 22:00:00 15.1 21 Sudoeste 45 Oeste -- -- -- 93
2019-11-22 21:00:00 15.6 23 Sudoeste 39 Sudoeste -- -- -- 88
2019-11-22 20:00:00 16.1 15 Sudoeste 39 Sudoeste -- -- -- 84
2019-11-22 19:00:00 15.9 17 Sudoeste 37 Oeste -- -- -- 87
2019-11-22 18:00:00 16.4 17 Sudoeste 27 Sudoeste -- -- -- 84
2019-11-22 17:00:00 16.4 13 Sudoeste 27 Oeste -- -- -- 85
2019-11-22 16:00:00 16.9 16 Oeste 40 Oeste -- -- -- 79
2019-11-22 15:00:00 16.6 12 Oeste 27 Oeste -- -- -- 84
2019-11-22 14:00:00 16.7 9 Oeste 30 Oeste -- -- -- 89
2019-11-22 13:00:00 16.2 10 Oeste 28 Sudoeste -- -- -- 89
2019-11-22 12:00:00 16.6 12 Oeste 21 Oeste -- -- -- 91
2019-11-22 11:00:00 14.6 12 Oeste 32 Oeste -- -- -- 97
2019-11-22 10:00:00 13.4 4 Sudoeste 8 Oeste -- -- -- 97
2019-11-22 09:00:00 13.2 6 Sudoeste 18 Oeste -- -- -- 97
2019-11-22 08:00:00 13 10 Sudoeste 17 Sudoeste -- -- -- 96
2019-11-22 07:00:00 12.8 5 Sudoeste 13 Oeste -- -- -- 97
2019-11-22 06:00:00 12.2 3 Sudeste 5 Sudeste -- -- -- 96
2019-11-22 05:00:00 11.6 2 Noroeste 5 Noroeste -- -- -- 97
2019-11-22 04:00:00 11.2 2 Sudoeste 8 Noroeste -- -- -- 95
2019-11-22 03:00:00 11 4 Norte 6 Noroeste -- -- -- 94
2019-11-22 02:00:00 10.1 2 Norte 11 Noroeste -- -- -- 94
2019-11-22 01:00:00 9.2 8 Noroeste 13 Noroeste -- -- -- 93
2019-11-22 00:00:00 9.2 6 Noroeste 9 Noroeste -- -- -- 93
2019-11-21 23:00:00 9.5 6 Norte 10 Noroeste -- -- -- 92
2019-11-21 22:00:00 9.4 8 Noroeste 10 Noroeste -- -- -- 91
2019-11-21 21:00:00 9.2 8 Noroeste 10 Noroeste -- -- -- 89
2019-11-21 20:00:00 10.4 5 Noroeste 8 Noroeste -- -- -- 85
2019-11-21 19:00:00 11.7 3 Noroeste 7 Oeste -- -- -- 77
2019-11-21 18:00:00 12.9 4 Noroeste 17 Oeste -- -- -- 73
2019-11-21 17:00:00 14.2 12 Oeste 21 Sudoeste -- -- -- 70
2019-11-21 16:00:00 14.9 12 Oeste 29 Oeste -- -- -- 67
2019-11-21 15:00:00 15.7 13 Oeste 31 Oeste -- -- -- 63
2019-11-21 14:00:00 16.7 18 Oeste 35 Oeste -- -- -- 61
2019-11-21 13:00:00 15.7 17 Oeste 33 Oeste -- -- -- 67
2019-11-21 12:00:00 17.5 12 Oeste 26 Oeste -- -- -- 65
2019-11-21 11:00:00 17.2 5 Oeste 15 Noroeste -- -- -- 66
2019-11-21 10:00:00 16 5 Oeste 14 Oeste -- -- -- 73
2019-11-21 09:00:00 13.2 0 Calma 7 Oeste -- -- -- 89
2019-11-21 08:00:00 9.2 5 Oeste 9 Noroeste -- -- -- 94
2019-11-21 07:00:00 10.9 8 Oeste 17 Oeste -- -- -- 93
2019-11-21 06:00:00 10.9 10 Oeste 16 Oeste -- -- -- 92
2019-11-21 05:00:00 11 15 Oeste 31 Oeste -- -- -- 88
2019-11-21 04:00:00 10.9 9 Oeste 19 Oeste -- -- -- 92
2019-11-21 03:00:00 9.6 6 Noroeste 12 Noroeste -- -- -- 95
2019-11-21 02:00:00 9.4 9 Noroeste 10 Noroeste -- -- -- 96
2019-11-21 01:00:00 7.9 6 Noroeste 12 Oeste -- -- -- 96
2019-11-21 00:00:00 7.5 9 Noroeste 12 Noroeste -- -- -- 95
2019-11-20 23:00:00 7.7 4 Norte 9 Noroeste -- -- -- 94
2019-11-20 22:00:00 8.6 5 Norte 8 Noroeste -- -- -- 92
2019-11-20 21:00:00 10.3 2 Norte 16 Sudoeste -- -- -- 90
2019-11-20 20:00:00 11.9 14 Sudoeste 35 Sudoeste -- -- -- 86
2019-11-20 19:00:00 13.1 8 Sudoeste 15 Sudoeste -- -- -- 81
2019-11-20 18:00:00 12.6 4 Oeste 10 Oeste -- -- -- 82
2019-11-20 17:00:00 13.2 6 Sudoeste 10 Sudoeste -- -- -- 80
2019-11-20 16:00:00 13.9 7 Sudoeste 15 Sudoeste -- -- -- 75
2019-11-20 15:00:00 14.1 7 Sudoeste 15 Sudoeste -- -- -- 74
2019-11-20 14:00:00 14.1 8 Sudoeste 14 Sur -- -- -- 69
2019-11-20 13:00:00 14.5 3 Sudoeste 7 Sudoeste -- -- -- 64
2019-11-20 12:00:00 13.8 0 Calma 4 Noroeste -- -- -- 72
2019-11-20 11:00:00 12.7 2 Norte 5 Noroeste -- -- -- 75
2019-11-20 10:00:00 13.6 3 Noroeste 10 Noroeste -- -- -- 74
2019-11-20 09:00:00 8.8 8 Noroeste 13 Noroeste -- -- -- 86
2019-11-20 08:00:00 5.3 9 Noroeste 14 Noroeste -- -- -- 91
2019-11-20 07:00:00 4.7 10 Noroeste 13 Noroeste -- -- -- 91
2019-11-20 06:00:00 4.6 9 Noroeste 14 Noroeste -- -- -- 90
2019-11-20 05:00:00 4.8 10 Noroeste 14 Noroeste -- -- -- 89
2019-11-20 04:00:00 5 9 Noroeste 13 Noroeste -- -- -- 89
2019-11-20 03:00:00 4.9 9 Noroeste 12 Noroeste -- -- -- 86
2019-11-20 02:00:00 5.6 9 Noroeste 13 Noroeste -- -- -- 84
2019-11-20 01:00:00 5.7 9 Noroeste 14 Noroeste -- -- -- 84
2019-11-20 00:00:00 5.5 9 Noroeste 13 Norte -- -- -- 85
2019-11-19 23:00:00 6.4 9 Noroeste 13 Noroeste -- -- -- 83
2019-11-19 22:00:00 6.6 8 Noroeste 11 Noroeste -- -- -- 85
2019-11-19 21:00:00 6.9 7 Noroeste 11 Noroeste -- -- -- 88
2019-11-19 20:00:00 7.7 8 Noroeste 12 Noroeste -- -- -- 88
2019-11-19 19:00:00 8.5 7 Noroeste 10 Noroeste -- -- -- 86
2019-11-19 18:00:00 10.5 6 Norte 8 Noroeste -- -- -- 77
2019-11-19 17:00:00 13.6 0 Calma 6 Oeste -- -- -- 65
2019-11-19 16:00:00 13.7 5 Oeste 14 Sudoeste -- -- -- 64
2019-11-19 15:00:00 13.9 6 Oeste 23 Noroeste -- -- -- 61
2019-11-19 14:00:00 14.4 14 Oeste 26 Oeste -- -- -- 57
2019-11-19 13:00:00 16 14 Oeste 26 Oeste -- -- -- 52
2019-11-19 12:00:00 15.7 10 Oeste 22 Noroeste -- -- -- 57
2019-11-19 11:00:00 14.5 8 Sudoeste 15 Oeste -- -- -- 59
2019-11-19 10:00:00 13.7 13 Oeste 20 Oeste -- -- -- 64
2019-11-19 09:00:00 10.8 6 Norte 10 Noroeste -- -- -- 83
2019-11-19 08:00:00 6.8 9 Norte 12 Noroeste -- -- -- 92
2019-11-19 07:00:00 7.3 9 Norte 13 Noroeste -- -- -- 91
2019-11-19 06:00:00 7.8 8 Norte 11 Noroeste -- -- -- 91
2019-11-19 05:00:00 8.9 5 Noroeste 9 Noroeste -- -- -- 90
2019-11-19 04:00:00 9 6 Noroeste 11 Noroeste -- -- -- 89
2019-11-19 03:00:00 9.8 4 Noroeste 18 Norte -- -- -- 83
2019-11-19 02:00:00 10.9 7 Norte 26 Nordeste -- -- -- 76
2019-11-19 01:00:00 12.1 12 Nordeste 28 Nordeste -- -- -- 65
2019-11-19 00:00:00 12.1 17 Nordeste 34 Nordeste -- -- -- 64
2019-11-18 23:00:00 12 17 Nordeste 33 Nordeste -- -- -- 65
2019-11-18 22:00:00 11.9 15 Norte 33 Nordeste -- -- -- 66
2019-11-18 21:00:00 12 18 Norte 33 Norte -- -- -- 67
2019-11-18 20:00:00 12.1 18 Nordeste 42 Nordeste -- -- -- 67
2019-11-18 19:00:00 12.2 21 Nordeste 42 Nordeste -- -- -- 71
2019-11-18 18:00:00 12.4 21 Norte 42 Nordeste -- -- -- 74
2019-11-18 17:00:00 12.3 21 Norte 46 Nordeste -- -- -- 72
2019-11-18 16:00:00 13 23 Nordeste 40 Nordeste -- -- -- 74
2019-11-18 15:00:00 12.4 13 Nordeste 36 Nordeste -- -- -- 86
2019-11-18 14:00:00 11.7 17 Nordeste 41 Norte -- -- -- 90
2019-11-18 13:00:00 14.2 9 Norte 22 Nordeste -- -- -- 76
2019-11-18 12:00:00 13.8 6 Nordeste 23 Norte -- -- -- 81
2019-11-18 11:00:00 13.3 12 Nordeste 25 Nordeste -- -- -- 83
2019-11-18 10:00:00 12 4 Norte 12 Nordeste 0 -- -- 94
2019-11-18 09:00:00 11.4 3 Sudoeste 23 Noroeste 0 -- -- 95
2019-11-18 08:00:00 10.6 5 Norte 10 Nordeste 0 -- -- 95
2019-11-18 07:00:00 9.9 0 Calma 8 Oeste 0 -- -- 95
2019-11-18 06:00:00 9.9 3 Norte 6 Noroeste 0 -- -- 93
2019-11-18 05:00:00 11 0 Calma 3 Este 0 -- -- 92
2019-11-18 04:00:00 11.7 0 Calma 9 Noroeste 0 -- -- 90
2019-11-18 03:00:00 11.5 5 Oeste 9 Oeste 0 -- -- 88
2019-11-18 02:00:00 11.9 6 Oeste 12 Oeste 0 -- -- 85
2019-11-18 01:00:00 13.4 9 Noroeste 26 Oeste 0 -- -- 80
2019-11-18 00:00:00 11.1 5 Noroeste 9 Noroeste 0 -- -- 75
2019-11-17 23:00:00 13.1 5 Sudoeste 13 Oeste 0 -- -- 69
2019-11-17 22:00:00 12.9 5 Oeste 15 Oeste 0 -- -- 67
2019-11-17 21:00:00 12.3 8 Noroeste 18 Noroeste 0 -- -- 67
2019-11-17 20:00:00 11.7 4 Norte 21 Noroeste 0 -- -- 72
2019-11-17 19:00:00 10.9 3 Oeste 6 Sudoeste 0 -- -- 72
2019-11-17 18:00:00 11.8 3 Oeste 20 Oeste 0 -- -- 64
2019-11-17 17:00:00 13.6 14 Noroeste 32 Noroeste 0 -- -- 58
2019-11-17 16:00:00 14.8 20 Oeste 35 Noroeste 0 -- -- 54
2019-11-17 15:00:00 15.2 22 Oeste 34 Noroeste 0 -- -- 52
2019-11-17 14:00:00 14.7 18 Noroeste 36 Oeste 0 -- -- 52
2019-11-17 13:00:00 15.4 20 Oeste 38 Oeste 0 -- -- 48
2019-11-17 12:00:00 15.3 18 Oeste 40 Oeste 0 -- -- 46
2019-11-17 11:00:00 15.8 20 Oeste 37 Oeste 0 -- -- 48
2019-11-17 10:00:00 14.2 14 Oeste 23 Oeste 0 -- -- 56
2019-11-17 09:00:00 13.1 2 Noroeste 12 Oeste 0 -- -- 60
2019-11-17 08:00:00 8.9 3 Noroeste 14 Noroeste 0 -- -- 71
2019-11-17 07:00:00 9.5 7 Oeste 21 Oeste 0 -- -- 67
2019-11-17 06:00:00 11.5 11 Oeste 24 Noroeste 0 -- -- 59
2019-11-17 05:00:00 11.8 7 Noroeste 40 Noroeste 0 -- -- 62
2019-11-17 04:00:00 11.8 14 Noroeste 28 Noroeste 0 -- -- 60
2019-11-17 03:00:00 11.3 8 Noroeste 19 Noroeste 0 -- -- 62
2019-11-17 02:00:00 10.5 9 Noroeste 20 Oeste 0 -- -- 68
2019-11-17 01:00:00 11.1 6 Oeste 27 Noroeste 0 -- -- 64
2019-11-17 00:00:00 10.4 10 Noroeste 28 Norte 0 -- -- 71
2019-11-16 23:00:00 9.5 10 Noroeste 18 Noroeste 0 -- -- 79
2019-11-16 22:00:00 8.9 9 Noroeste 15 Noroeste 0 -- -- 82
2019-11-16 21:00:00 10.4 6 Noroeste 19 Norte 0 -- -- 74
2019-11-16 20:00:00 11.3 8 Norte 17 Norte 0 -- -- 71
2019-11-16 19:00:00 10.9 8 Norte 17 Norte 0 -- -- 74
2019-11-16 18:00:00 10.7 9 Norte 17 Noroeste 0 -- -- 85
2019-11-16 17:00:00 10.6 9 Norte 24 Norte 0 -- -- 85
2019-11-16 16:00:00 12 14 Norte 22 Norte 0 -- -- 76
2019-11-16 15:00:00 11.7 13 Norte 36 Noroeste 0 -- -- 75
2019-11-16 14:00:00 11.8 19 Norte 32 Norte 0 -- -- 75
2019-11-16 13:00:00 10.8 5 Noroeste 11 Noroeste 0 -- -- 82
2019-11-16 12:00:00 10 4 Sudeste 27 Este 0 -- -- 82
2019-11-16 11:00:00 11.3 15 Este 26 Este 0 -- -- 73
2019-11-16 10:00:00 10.5 5 Noroeste 12 Noroeste 0 -- -- 83
2019-11-16 09:00:00 9 6 Noroeste 13 Noroeste 0 -- -- 85
2019-11-16 08:00:00 8.2 5 Noroeste 12 Noroeste 0 -- -- 86
2019-11-16 07:00:00 7.5 6 Norte 11 Noroeste 0 -- -- 86
2019-11-16 06:00:00 7 9 Noroeste 13 Noroeste 0 -- -- 85
2019-11-16 05:00:00 7.2 3 Norte 16 Norte 0 -- -- 81
2019-11-16 04:00:00 8.8 13 Norte 29 Norte 0 -- -- 77
2019-11-16 03:00:00 5.5 8 Noroeste 15 Noroeste 0 -- -- 88
2019-11-16 02:00:00 5 6 Norte 11 Noroeste 0 -- -- 88
2019-11-16 01:00:00 5.5 8 Norte 11 Norte 0 -- -- 87
2019-11-16 00:00:00 6.4 5 Norte 12 Oeste 0 -- -- 85
2019-11-15 23:00:00 6.5 8 Noroeste 12 Oeste 0 -- -- 88
2019-11-15 22:00:00 6.4 8 Norte 10 Noroeste 0 -- -- 86
2019-11-15 21:00:00 7.5 8 Noroeste 13 Oeste 0 -- -- 79
2019-11-15 20:00:00 10 10 Oeste 15 Oeste 0 -- -- 72
2019-11-15 19:00:00 10 7 Oeste 16 Noroeste 0 -- -- 72
2019-11-15 18:00:00 10.2 8 Oeste 12 Oeste 0 -- -- 70
2019-11-15 17:00:00 13 8 Noroeste 19 Oeste 0 -- -- 55
2019-11-15 16:00:00 14.2 8 Oeste 23 Oeste 0 -- -- 52
2019-11-15 15:00:00 15.4 5 Noroeste 27 Norte 0 -- -- 51
2019-11-15 14:00:00 15.7 9 Noroeste 22 Norte 0 -- -- 55
2019-11-15 13:00:00 15.5 15 Norte 25 Norte 0 -- -- 55
2019-11-15 12:00:00 13.3 12 Norte 22 Norte 0 -- -- 66
2019-11-15 11:00:00 14 9 Noroeste 26 Noroeste 0 -- -- 66
2019-11-15 10:00:00 13.3 9 Noroeste 27 Oeste 0 -- -- 69
2019-11-15 09:00:00 11 13 Oeste 21 Oeste 0 -- -- 72
2019-11-15 08:00:00 11.8 11 Oeste 26 Oeste 0 -- -- 65
2019-11-15 07:00:00 11.2 11 Oeste 26 Oeste 0 -- -- 66
2019-11-15 06:00:00 11.3 11 Oeste 25 Oeste 0 -- -- 68
2019-11-15 05:00:00 8.8 10 Oeste 23 Oeste 0 -- -- 79
2019-11-15 04:00:00 9.8 6 Noroeste 25 Oeste 0 -- -- 75
2019-11-15 03:00:00 8.2 6 Oeste 15 Sudoeste 0 -- -- 95
2019-11-15 02:00:00 6.2 2 Nordeste 9 Norte 0 -- -- 91
2019-11-15 01:00:00 6.7 6 Norte 11 Noroeste 0 -- -- 90
2019-11-15 00:00:00 7.7 7 Noroeste 11 Noroeste 0 -- -- 88